Time;durP1;ratioP1;P1;durP2;ratioP2;P2;SDS_P1;SDS_P2;PMS_P1;PMS_P2;Temp;Humidity;BMP_temperature;BMP_pressure;BME280_temperature;BME280_humidity;BME280_pressure;Samples;Min_cycle;Max_cycle;Signal;HPM_P1;HPM_P2
2022/04/07 00:01:00;;;;;;;;;;;10.20;99.90;;;;;;5117821;27;19930;-77
2022/04/07 00:03:27;;;;;;;;;;;10.20;99.90;;;;;;5119035;27;19923;-77
2022/04/07 00:05:53;;;;;;;;;;;10.10;99.90;;;;;;5123685;27;19947;-77
2022/04/07 00:08:20;;;;;;;;;;;10.10;99.90;;;;;;5120795;27;19993;-77
2022/04/07 00:10:48;;;;;;;;;;;10.20;99.90;;;;;;5107449;27;19931;-77
2022/04/07 00:13:15;;;;;;;;;;;10.10;99.90;;;;;;5116057;27;20057;-78
2022/04/07 00:15:43;;;;;;;;;;;10.20;99.90;;;;;;5121693;27;19931;-77
2022/04/07 00:18:10;;;;;;;;;;;10.10;99.90;;;;;;5102685;27;19935;-77
2022/04/07 00:20:37;;;;;;;;;;;10.10;99.90;;;;;;5120103;27;19923;-78
2022/04/07 00:23:04;;;;;;;;;;;10.10;99.90;;;;;;5122071;27;19923;-77
2022/04/07 00:25:32;;;;;;;;;;;10.10;99.90;;;;;;5106093;27;21341;-80
2022/04/07 00:27:59;;;;;;;;;;;10.00;99.90;;;;;;5105609;27;20283;-78
2022/04/07 00:30:26;;;;;;;;;;;10.00;99.90;;;;;;5127742;27;19968;-77
2022/04/07 00:32:54;;;;;;;;;;;10.10;99.90;;;;;;5120332;27;19931;-77
2022/04/07 00:35:22;;;;;;;;;;;10.00;99.90;;;;;;5117136;27;19955;-77
2022/04/07 00:37:49;;;;;;;;;;;10.00;99.90;;;;;;5123493;27;19923;-77
2022/04/07 00:40:17;;;;;;;;;;;10.00;99.90;;;;;;5102798;27;19923;-77
2022/04/07 00:42:46;;;;;;;;;;;10.00;99.90;;;;;;5114758;27;19931;-78
2022/04/07 00:45:13;;;;;;;;;;;10.00;99.90;;;;;;5125584;27;19923;-77
2022/04/07 00:47:39;;;;;;;;;;;10.00;99.90;;;;;;5096290;27;19927;-77
2022/04/07 00:50:08;;;;;;;;;;;10.00;99.90;;;;;;5123368;27;19923;-78
2022/04/07 00:52:35;;;;;;;;;;;10.00;99.90;;;;;;5123243;27;20313;-77
2022/04/07 00:55:02;;;;;;;;;;;10.00;99.90;;;;;;5108663;27;19931;-77
2022/04/07 00:57:29;;;;;;;;;;;10.00;99.90;;;;;;5117024;27;19924;-77
2022/04/07 00:59:56;;;;;;;;;;;9.90;99.90;;;;;;5086583;27;19923;-77
2022/04/07 01:02:23;;;;;;;;;;;10.00;99.90;;;;;;5161749;22;20388;-92
2022/04/07 01:04:50;;;;;;;;;;;9.90;99.90;;;;;;5088488;28;19925;-92
2022/04/07 01:07:20;;;;;;;;;;;9.90;99.90;;;;;;5086966;28;19932;-93
2022/04/07 01:09:47;;;;;;;;;;;9.90;99.90;;;;;;5102575;28;19924;-93
2022/04/07 01:12:14;;;;;;;;;;;9.90;99.90;;;;;;5081487;28;19924;-93
2022/04/07 01:14:53;;;;;;;;;;;9.90;99.90;;;;;;5085514;28;19992;-92
2022/04/07 01:17:20;;;;;;;;;;;9.80;99.90;;;;;;5103077;28;19925;-92
2022/04/07 01:19:47;;;;;;;;;;;9.90;99.90;;;;;;5088458;28;19939;-93
2022/04/07 01:22:15;;;;;;;;;;;9.80;99.90;;;;;;5085371;28;19924;-93
2022/04/07 01:24:43;;;;;;;;;;;9.80;99.90;;;;;;5074684;28;20046;-93
2022/04/07 01:27:11;;;;;;;;;;;9.80;99.90;;;;;;5082721;28;19924;-93
2022/04/07 01:29:38;;;;;;;;;;;9.80;99.90;;;;;;5090212;28;20369;-93
2022/04/07 01:32:08;;;;;;;;;;;9.80;99.90;;;;;;5081311;28;19932;-92
2022/04/07 01:34:35;;;;;;;;;;;9.80;99.90;;;;;;5078356;28;19957;-92
2022/04/07 01:37:02;;;;;;;;;;;9.80;99.90;;;;;;5080685;28;19928;-92
2022/04/07 01:39:29;;;;;;;;;;;9.80;99.90;;;;;;5083782;28;19932;-92
2022/04/07 01:41:58;;;;;;;;;;;9.70;99.90;;;;;;5086480;28;19946;-93
2022/04/07 01:44:25;;;;;;;;;;;9.80;99.90;;;;;;5085116;28;19955;-92
2022/04/07 01:46:52;;;;;;;;;;;9.70;99.90;;;;;;5082172;28;19947;-93
2022/04/07 01:49:20;;;;;;;;;;;9.70;99.90;;;;;;5108232;28;20386;-93
2022/04/07 01:51:49;;;;;;;;;;;9.70;99.90;;;;;;5084413;28;19954;-92
2022/04/07 01:54:16;;;;;;;;;;;9.70;99.90;;;;;;5101775;28;19931;-92
2022/04/07 01:56:44;;;;;;;;;;;9.70;99.90;;;;;;5101687;28;19924;-91
2022/04/07 01:59:13;;;;;;;;;;;9.60;99.90;;;;;;5085236;28;20337;-92
2022/04/07 02:01:40;;;;;;;;;;;9.70;99.90;;;;;;5083303;28;21144;-93
2022/04/07 02:04:07;;;;;;;;;;;9.70;99.90;;;;;;5080689;28;19977;-91
2022/04/07 02:06:34;;;;;;;;;;;9.60;99.90;;;;;;5088070;28;19931;-93
2022/04/07 02:09:02;;;;;;;;;;;9.60;99.90;;;;;;5084393;28;19993;-92
2022/04/07 02:11:31;;;;;;;;;;;9.60;99.90;;;;;;5088826;28;19932;-93
2022/04/07 02:13:58;;;;;;;;;;;9.60;99.90;;;;;;5084661;28;19972;-92
2022/04/07 02:16:27;;;;;;;;;;;9.60;99.90;;;;;;5089517;28;19930;-92
2022/04/07 02:18:54;;;;;;;;;;;9.60;99.90;;;;;;5088557;28;19928;-93
2022/04/07 02:21:21;;;;;;;;;;;9.50;99.90;;;;;;5085154;28;19932;-92
2022/04/07 02:23:48;;;;;;;;;;;9.50;99.90;;;;;;5085920;28;19924;-92
2022/04/07 02:26:17;;;;;;;;;;;9.50;99.90;;;;;;5084761;28;19982;-92
2022/04/07 02:28:44;;;;;;;;;;;9.50;99.90;;;;;;5099069;28;19924;-92
2022/04/07 02:31:11;;;;;;;;;;;9.50;99.90;;;;;;5081163;28;19964;-93
2022/04/07 02:33:39;;;;;;;;;;;9.50;99.90;;;;;;5084857;28;19939;-92
2022/04/07 02:36:07;;;;;;;;;;;9.50;99.90;;;;;;5085892;28;20653;-91
2022/04/07 02:38:35;;;;;;;;;;;9.50;99.90;;;;;;5090619;28;19930;-92
2022/04/07 02:41:02;;;;;;;;;;;9.50;99.90;;;;;;5086066;28;19966;-92
2022/04/07 02:43:29;;;;;;;;;;;9.40;99.90;;;;;;5083935;28;19995;-93
2022/04/07 02:45:56;;;;;;;;;;;9.40;99.90;;;;;;5105159;28;19928;-92
2022/04/07 02:48:22;;;;;;;;;;;9.40;99.90;;;;;;5078898;28;19928;-93
2022/04/07 02:50:51;;;;;;;;;;;9.30;99.90;;;;;;5089729;28;19978;-92
2022/04/07 02:53:18;;;;;;;;;;;9.40;99.90;;;;;;5089701;28;20380;-90
2022/04/07 02:55:44;;;;;;;;;;;9.30;99.90;;;;;;5087270;28;19924;-93
2022/04/07 02:58:11;;;;;;;;;;;9.30;99.90;;;;;;5088144;28;19931;-91
2022/04/07 03:00:39;;;;;;;;;;;9.30;99.90;;;;;;5087226;28;19928;-92
2022/04/07 03:03:06;;;;;;;;;;;9.30;99.90;;;;;;5090334;28;19934;-91
2022/04/07 03:05:32;;;;;;;;;;;9.20;99.90;;;;;;5091627;28;19954;-91
2022/04/07 03:08:01;;;;;;;;;;;9.20;99.90;;;;;;5104755;28;19932;-90
2022/04/07 03:10:28;;;;;;;;;;;9.20;99.90;;;;;;5089616;28;19928;-90
2022/04/07 03:12:54;;;;;;;;;;;9.20;99.90;;;;;;5084590;28;19924;-92
2022/04/07 03:15:21;;;;;;;;;;;9.20;99.90;;;;;;5088910;28;19952;-91
2022/04/07 03:17:48;;;;;;;;;;;9.10;99.90;;;;;;5086193;28;19932;-92
2022/04/07 03:20:15;;;;;;;;;;;9.10;99.90;;;;;;5088186;28;19924;-92
2022/04/07 03:22:43;;;;;;;;;;;9.10;99.90;;;;;;5090827;28;19924;-92
2022/04/07 03:25:11;;;;;;;;;;;9.10;99.90;;;;;;5103291;28;19931;-92
2022/04/07 03:27:38;;;;;;;;;;;9.10;99.90;;;;;;5080456;28;19939;-92
2022/04/07 03:30:05;;;;;;;;;;;9.10;99.90;;;;;;5087317;28;19924;-91
2022/04/07 03:32:32;;;;;;;;;;;9.10;99.90;;;;;;5087058;28;19931;-93
2022/04/07 03:34:59;;;;;;;;;;;9.10;99.90;;;;;;5080619;28;19938;-92
2022/04/07 03:37:26;;;;;;;;;;;9.10;99.90;;;;;;5084515;28;20154;-93
2022/04/07 03:39:53;;;;;;;;;;;9.00;99.90;;;;;;5096059;28;20019;-93
2022/04/07 03:42:22;;;;;;;;;;;9.00;99.90;;;;;;5095867;28;20031;-94
2022/04/07 03:44:48;;;;;;;;;;;9.00;99.90;;;;;;5089375;28;19931;-93
2022/04/07 03:47:15;;;;;;;;;;;9.00;99.90;;;;;;5093170;28;19978;-92
2022/04/07 03:49:42;;;;;;;;;;;9.00;99.90;;;;;;5100754;28;19924;-93
2022/04/07 03:52:09;;;;;;;;;;;9.00;99.90;;;;;;5104346;28;19923;-95
2022/04/07 03:54:36;;;;;;;;;;;9.00;99.90;;;;;;5096631;28;19924;-93
2022/04/07 03:57:04;;;;;;;;;;;9.00;99.90;;;;;;5090499;28;19932;-92
2022/04/07 03:59:37;;;;;;;;;;;9.00;99.90;;;;;;5087556;28;19975;-93
2022/04/07 04:02:05;;;;;;;;;;;9.00;99.90;;;;;;5091065;28;19931;-93
2022/04/07 04:04:32;;;;;;;;;;;8.90;99.90;;;;;;5091847;28;19954;-92
2022/04/07 04:06:59;;;;;;;;;;;8.90;99.90;;;;;;5087333;28;19931;-93
2022/04/07 04:09:26;;;;;;;;;;;8.90;99.90;;;;;;5090381;28;19924;-93
2022/04/07 04:11:52;;;;;;;;;;;8.90;99.90;;;;;;5086533;28;19924;-92
2022/04/07 04:14:20;;;;;;;;;;;8.90;99.90;;;;;;5115209;28;20007;-92
2022/04/07 04:16:48;;;;;;;;;;;8.90;99.90;;;;;;5094964;28;19949;-92
2022/04/07 04:19:15;;;;;;;;;;;8.90;99.90;;;;;;5088941;28;19982;-92
2022/04/07 04:21:42;;;;;;;;;;;8.90;99.90;;;;;;5089406;28;19939;-93
2022/04/07 04:24:10;;;;;;;;;;;8.80;99.90;;;;;;5090247;28;19924;-92
2022/04/07 04:26:37;;;;;;;;;;;8.80;99.90;;;;;;5083261;28;20027;-92
2022/04/07 04:29:04;;;;;;;;;;;8.80;99.90;;;;;;5077927;28;19962;-92
2022/04/07 04:31:31;;;;;;;;;;;8.80;99.90;;;;;;5086236;28;19928;-92
2022/04/07 04:34:00;;;;;;;;;;;8.80;99.90;;;;;;5084928;28;19983;-92
2022/04/07 04:36:28;;;;;;;;;;;8.80;99.90;;;;;;5096228;28;19925;-92
2022/04/07 04:38:55;;;;;;;;;;;8.80;99.90;;;;;;5098933;28;20298;-92
2022/04/07 04:41:22;;;;;;;;;;;8.70;99.90;;;;;;5091141;28;19924;-91
2022/04/07 04:43:49;;;;;;;;;;;8.70;99.90;;;;;;5100969;28;19924;-93
2022/04/07 04:46:16;;;;;;;;;;;8.70;99.90;;;;;;5101551;28;19924;-91
2022/04/07 04:48:43;;;;;;;;;;;8.70;99.90;;;;;;5114955;22;19931;-77
2022/04/07 04:51:11;;;;;;;;;;;8.70;99.90;;;;;;5122092;27;19935;-78
2022/04/07 04:53:38;;;;;;;;;;;8.70;99.90;;;;;;5122283;27;20471;-78
2022/04/07 04:56:05;;;;;;;;;;;8.70;99.90;;;;;;5123524;27;19947;-77
2022/04/07 04:58:32;;;;;;;;;;;8.70;99.90;;;;;;5087778;27;19927;-78
2022/04/07 05:00:59;;;;;;;;;;;8.60;99.90;;;;;;5106844;27;20018;-77
2022/04/07 05:03:26;;;;;;;;;;;8.60;99.90;;;;;;5109784;27;19924;-77
2022/04/07 05:05:52;;;;;;;;;;;8.60;99.90;;;;;;5114106;27;19924;-77
2022/04/07 05:08:21;;;;;;;;;;;8.60;99.90;;;;;;5107728;27;19927;-76
2022/04/07 05:10:47;;;;;;;;;;;8.60;99.90;;;;;;5102125;27;20027;-75
2022/04/07 05:13:14;;;;;;;;;;;8.60;99.90;;;;;;5101981;28;19927;-75
2022/04/07 05:15:41;;;;;;;;;;;8.60;99.90;;;;;;5089616;28;19928;-76
2022/04/07 05:18:08;;;;;;;;;;;8.60;99.90;;;;;;5104616;28;20323;-77
2022/04/07 05:20:36;;;;;;;;;;;8.60;99.90;;;;;;5101538;27;19932;-76
2022/04/07 05:23:03;;;;;;;;;;;8.60;99.90;;;;;;5093383;28;20020;-76
2022/04/07 05:25:34;;;;;;;;;;;8.60;99.90;;;;;;5100762;27;19924;-77
2022/04/07 05:28:01;;;;;;;;;;;8.50;99.90;;;;;;5100255;28;20464;-76
2022/04/07 05:30:28;;;;;;;;;;;8.50;99.90;;;;;;5102246;27;19926;-75
2022/04/07 05:32:55;;;;;;;;;;;8.60;99.90;;;;;;5113010;27;20572;-78
2022/04/07 05:35:26;;;;;;;;;;;8.50;99.90;;;;;;5109849;28;19931;-77
2022/04/07 05:37:57;;;;;;;;;;;8.50;99.90;;;;;;5106938;27;19975;-77
2022/04/07 05:40:24;;;;;;;;;;;8.50;99.90;;;;;;5118058;27;19988;-77
2022/04/07 05:42:52;;;;;;;;;;;8.50;99.90;;;;;;5107259;27;20021;-78
2022/04/07 05:45:19;;;;;;;;;;;8.50;99.90;;;;;;5099140;28;19931;-78
2022/04/07 05:47:46;;;;;;;;;;;8.50;99.90;;;;;;5105677;27;20401;-76
2022/04/07 05:50:13;;;;;;;;;;;8.50;99.90;;;;;;5101435;27;19934;-77
2022/04/07 05:52:40;;;;;;;;;;;8.50;99.90;;;;;;5100845;28;19934;-76
2022/04/07 05:55:07;;;;;;;;;;;8.50;99.90;;;;;;5108256;28;19931;-79
2022/04/07 05:57:34;;;;;;;;;;;8.50;99.90;;;;;;5103224;28;20405;-76
2022/04/07 06:00:04;;;;;;;;;;;8.50;99.90;;;;;;5101565;28;20342;-78
2022/04/07 06:02:31;;;;;;;;;;;8.50;99.90;;;;;;5102350;27;19924;-78
2022/04/07 06:04:58;;;;;;;;;;;8.50;99.90;;;;;;5099243;28;19932;-78
2022/04/07 06:07:25;;;;;;;;;;;8.50;99.90;;;;;;5097952;27;19924;-79
2022/04/07 06:09:52;;;;;;;;;;;8.50;99.90;;;;;;5101800;27;19931;-78
2022/04/07 06:12:19;;;;;;;;;;;8.50;99.90;;;;;;5074402;28;20385;-75
2022/04/07 06:14:45;;;;;;;;;;;8.50;99.90;;;;;;5098778;27;19924;-76
2022/04/07 06:17:14;;;;;;;;;;;8.50;99.90;;;;;;5102845;27;19989;-76
2022/04/07 06:19:41;;;;;;;;;;;8.40;99.90;;;;;;5098058;27;19928;-76
2022/04/07 06:22:07;;;;;;;;;;;8.40;99.90;;;;;;5101660;28;20896;-76
2022/04/07 06:24:35;;;;;;;;;;;8.50;99.90;;;;;;5081349;28;20289;-77
2022/04/07 06:27:01;;;;;;;;;;;8.40;99.90;;;;;;5103439;27;19923;-78
2022/04/07 06:29:28;;;;;;;;;;;8.40;99.90;;;;;;5092494;28;20069;-77
2022/04/07 06:31:55;;;;;;;;;;;8.40;99.90;;;;;;5101676;28;19923;-75
2022/04/07 06:34:24;;;;;;;;;;;8.40;99.90;;;;;;5097515;27;19931;-74
2022/04/07 06:36:50;;;;;;;;;;;8.50;99.90;;;;;;5097866;27;19924;-76
2022/04/07 06:39:17;;;;;;;;;;;8.50;99.90;;;;;;5093910;28;20592;-76
2022/04/07 06:41:44;;;;;;;;;;;8.40;99.90;;;;;;5097730;28;19928;-76
2022/04/07 06:44:11;;;;;;;;;;;8.50;99.90;;;;;;5103761;27;19967;-75
2022/04/07 06:46:38;;;;;;;;;;;8.50;99.90;;;;;;5102667;28;19935;-77
2022/04/07 06:49:05;;;;;;;;;;;8.50;99.90;;;;;;5099034;27;19927;-77
2022/04/07 06:51:33;;;;;;;;;;;8.50;99.90;;;;;;5095981;27;19924;-77
2022/04/07 06:54:00;;;;;;;;;;;8.50;99.90;;;;;;5097366;28;19928;-78
2022/04/07 06:56:27;;;;;;;;;;;8.50;99.90;;;;;;5104120;28;19924;-78
2022/04/07 06:58:54;;;;;;;;;;;8.50;99.90;;;;;;5103342;28;19931;-76
2022/04/07 07:01:21;;;;;;;;;;;8.70;99.90;;;;;;5097794;28;20014;-77
2022/04/07 07:03:48;;;;;;;;;;;8.60;99.90;;;;;;5145756;22;19985;-77
2022/04/07 07:06:15;;;;;;;;;;;8.60;99.90;;;;;;5086628;28;19932;-77
2022/04/07 07:08:43;;;;;;;;;;;8.60;99.90;;;;;;5071674;28;19932;-78
2022/04/07 07:11:11;;;;;;;;;;;8.60;99.90;;;;;;5064907;28;19928;-77
2022/04/07 07:13:38;;;;;;;;;;;8.60;99.90;;;;;;5077254;28;20284;-77
2022/04/07 07:16:05;;;;;;;;;;;8.60;99.90;;;;;;5066815;28;19924;-77
2022/04/07 07:18:32;;;;;;;;;;;8.60;99.90;;;;;;5064951;28;19967;-79
2022/04/07 07:20:59;;;;;;;;;;;8.80;99.90;;;;;;5064988;28;20023;-79
2022/04/07 07:23:26;;;;;;;;;;;9.00;99.90;;;;;;5062133;28;19925;-80
2022/04/07 07:25:54;;;;;;;;;;;9.10;99.90;;;;;;5065204;28;19924;-79
2022/04/07 07:28:21;;;;;;;;;;;9.20;99.90;;;;;;5081104;28;19988;-79
2022/04/07 07:30:48;;;;;;;;;;;9.20;99.90;;;;;;5064454;28;19988;-80
2022/04/07 07:33:15;;;;;;;;;;;9.20;99.90;;;;;;5065924;28;19933;-79
2022/04/07 07:35:43;;;;;;;;;;;9.20;99.90;;;;;;5071627;28;20313;-79
2022/04/07 07:38:10;;;;;;;;;;;9.30;99.90;;;;;;5064927;28;20327;-80
2022/04/07 07:40:37;;;;;;;;;;;9.40;99.90;;;;;;5060353;28;19925;-76
2022/04/07 07:43:05;;;;;;;;;;;9.30;99.90;;;;;;5062729;28;19937;-76
2022/04/07 07:45:33;;;;;;;;;;;9.20;99.90;;;;;;5068321;28;19932;-77
2022/04/07 07:48:00;;;;;;;;;;;9.10;99.90;;;;;;5063229;28;19972;-76
2022/04/07 07:50:27;;;;;;;;;;;9.10;99.90;;;;;;5060029;28;19924;-76
2022/04/07 07:52:54;;;;;;;;;;;9.10;99.90;;;;;;5069313;28;19935;-76
2022/04/07 07:55:21;;;;;;;;;;;9.10;99.90;;;;;;5063055;28;20389;-76
2022/04/07 07:57:48;;;;;;;;;;;9.10;99.90;;;;;;5063812;28;20341;-77
2022/04/07 08:00:17;;;;;;;;;;;9.10;99.90;;;;;;5065176;28;19925;-77
2022/04/07 08:02:44;;;;;;;;;;;9.10;99.90;;;;;;5061108;28;19924;-76
2022/04/07 08:05:11;;;;;;;;;;;9.10;99.90;;;;;;5065199;28;20442;-77
2022/04/07 08:07:39;;;;;;;;;;;9.10;99.90;;;;;;5081783;28;19932;-77
2022/04/07 08:10:06;;;;;;;;;;;9.10;99.90;;;;;;5084859;28;19924;-77
2022/04/07 08:12:33;;;;;;;;;;;9.10;99.90;;;;;;5086019;28;20023;-77
2022/04/07 08:15:01;;;;;;;;;;;9.10;99.90;;;;;;5089932;28;19928;-77
2022/04/07 08:17:29;;;;;;;;;;;9.20;99.90;;;;;;5088106;28;19939;-76
2022/04/07 08:19:56;;;;;;;;;;;9.20;99.90;;;;;;5086453;28;19959;-79
2022/04/07 08:22:23;;;;;;;;;;;9.30;99.90;;;;;;5093098;28;20001;-79
2022/04/07 08:24:50;;;;;;;;;;;9.60;99.90;;;;;;5089912;28;20046;-79
2022/04/07 08:27:17;;;;;;;;;;;9.80;99.90;;;;;;5071400;28;19953;-77
2022/04/07 08:29:44;;;;;;;;;;;9.70;99.90;;;;;;5071424;28;19924;-76
2022/04/07 08:32:10;;;;;;;;;;;9.60;99.90;;;;;;5070824;28;19930;-77
2022/04/07 08:34:39;;;;;;;;;;;9.50;99.90;;;;;;5086449;28;19931;-77
2022/04/07 08:37:06;;;;;;;;;;;9.50;99.90;;;;;;5086219;28;19932;-77
2022/04/07 08:39:32;;;;;;;;;;;9.50;99.90;;;;;;5082732;28;20009;-77
2022/04/07 08:41:59;;;;;;;;;;;9.50;99.90;;;;;;5084842;28;19943;-77
2022/04/07 08:44:31;;;;;;;;;;;9.50;99.90;;;;;;5064150;28;19946;-79
2022/04/07 08:46:59;;;;;;;;;;;9.50;99.90;;;;;;5071752;28;19928;-79
2022/04/07 08:49:26;;;;;;;;;;;9.80;99.90;;;;;;5087210;28;20509;-79
2022/04/07 08:51:54;;;;;;;;;;;9.90;99.90;;;;;;5087643;28;19932;-76
2022/04/07 08:54:22;;;;;;;;;;;9.90;99.90;;;;;;5081756;28;19924;-78
2022/04/07 08:56:49;;;;;;;;;;;9.80;99.90;;;;;;5084192;28;20402;-76
2022/04/07 08:59:16;;;;;;;;;;;9.70;99.90;;;;;;5089030;28;19932;-77
2022/04/07 09:01:44;;;;;;;;;;;9.70;99.90;;;;;;5082096;28;19924;-77
2022/04/07 09:04:11;;;;;;;;;;;9.70;99.90;;;;;;5087921;28;20478;-77
2022/04/07 09:06:39;;;;;;;;;;;9.70;99.90;;;;;;5087045;28;19936;-76
2022/04/07 09:09:16;;;;;;;;;;;9.70;99.90;;;;;;5087277;28;19924;-76
2022/04/07 09:11:43;;;;;;;;;;;9.70;99.90;;;;;;5090678;28;21301;-76
2022/04/07 09:14:11;;;;;;;;;;;9.70;99.90;;;;;;5086990;28;20355;-79
2022/04/07 09:16:39;;;;;;;;;;;9.80;99.90;;;;;;5075782;28;19928;-77
2022/04/07 09:19:06;;;;;;;;;;;9.90;99.90;;;;;;5087062;28;20397;-77
2022/04/07 09:21:34;;;;;;;;;;;9.90;99.90;;;;;;5087260;28;20400;-77
2022/04/07 09:24:05;;;;;;;;;;;9.80;99.90;;;;;;5065155;28;19928;-77
2022/04/07 09:26:34;;;;;;;;;;;9.80;99.90;;;;;;5092920;28;19935;-80
2022/04/07 09:29:07;;;;;;;;;;;10.00;99.90;;;;;;5080380;28;19940;-80
2022/04/07 09:31:37;;;;;;;;;;;10.30;99.90;;;;;;5091035;28;20303;-77
2022/04/07 09:34:03;;;;;;;;;;;10.40;99.90;;;;;;5094363;28;19932;-80
2022/04/07 09:36:30;;;;;;;;;;;10.50;99.90;;;;;;5095090;28;20005;-79
2022/04/07 09:38:58;;;;;;;;;;;10.60;99.90;;;;;;5092823;28;19927;-80
2022/04/07 09:41:28;;;;;;;;;;;10.70;99.90;;;;;;5091390;28;19930;-80
2022/04/07 09:43:58;;;;;;;;;;;10.70;99.90;;;;;;5077755;28;20352;-79
2022/04/07 09:46:26;;;;;;;;;;;10.80;99.90;;;;;;5091772;28;19924;-80
2022/04/07 09:49:00;;;;;;;;;;;10.80;99.90;;;;;;5066265;28;19929;-80
2022/04/07 09:51:27;;;;;;;;;;;10.90;99.90;;;;;;5089567;28;19924;-80
2022/04/07 09:53:56;;;;;;;;;;;10.90;99.90;;;;;;5089550;28;19924;-80
2022/04/07 09:56:25;;;;;;;;;;;10.90;99.90;;;;;;5091437;28;19960;-80
2022/04/07 09:58:53;;;;;;;;;;;11.00;99.90;;;;;;5073253;28;20023;-80
2022/04/07 10:01:22;;;;;;;;;;;11.00;99.90;;;;;;5089680;28;19981;-80
2022/04/07 10:03:50;;;;;;;;;;;11.10;99.90;;;;;;5098580;28;19927;-79
2022/04/07 10:06:17;;;;;;;;;;;11.10;99.90;;;;;;5104052;28;19924;-79
2022/04/07 10:08:47;;;;;;;;;;;11.10;99.90;;;;;;5095222;28;19985;-80
2022/04/07 10:11:14;;;;;;;;;;;11.20;99.90;;;;;;5084123;28;19924;-79
2022/04/07 10:13:42;;;;;;;;;;;11.20;99.90;;;;;;5084914;28;20027;-77
2022/04/07 10:16:09;;;;;;;;;;;11.10;99.90;;;;;;5090388;28;20340;-80
2022/04/07 10:18:41;;;;;;;;;;;11.10;99.90;;;;;;5089406;28;19931;-78
2022/04/07 10:21:09;;;;;;;;;;;11.00;99.90;;;;;;5071265;28;20015;-77
2022/04/07 10:23:43;;;;;;;;;;;11.00;99.90;;;;;;5062815;28;19928;-77
2022/04/07 10:26:11;;;;;;;;;;;10.90;99.90;;;;;;5087883;28;19967;-80
2022/04/07 10:28:38;;;;;;;;;;;11.10;99.90;;;;;;5068879;28;19928;-79
2022/04/07 10:31:12;;;;;;;;;;;11.10;99.90;;;;;;5087444;28;19924;-79
2022/04/07 10:33:47;;;;;;;;;;;11.20;99.90;;;;;;5070063;28;19924;-79
2022/04/07 10:36:15;;;;;;;;;;;11.20;99.90;;;;;;5070456;28;19924;-79
2022/04/07 10:38:42;;;;;;;;;;;11.30;99.90;;;;;;5085578;28;19928;-80
2022/04/07 10:41:10;;;;;;;;;;;11.20;99.90;;;;;;5088491;28;19939;-79
2022/04/07 10:43:39;;;;;;;;;;;11.30;99.90;;;;;;5075368;28;19931;-79
2022/04/07 10:46:10;;;;;;;;;;;11.30;99.90;;;;;;5086046;28;19946;-79
2022/04/07 10:48:37;;;;;;;;;;;11.30;99.90;;;;;;5086940;28;19977;-79
2022/04/07 10:51:07;;;;;;;;;;;11.40;99.90;;;;;;5084300;28;19924;-80
2022/04/07 10:53:36;;;;;;;;;;;11.40;99.90;;;;;;5089573;28;19960;-79
2022/04/07 10:56:07;;;;;;;;;;;11.40;99.90;;;;;;5085884;28;19932;-78
2022/04/07 10:58:54;;;;;;;;;;;11.30;99.90;;;;;;5109126;28;19938;-80
2022/04/07 11:01:48;;;;;;;;;;;11.20;99.90;;;;;;5095547;28;19915;-79
2022/04/07 11:04:28;;;;;;;;;;;11.20;99.90;;;;;;5092376;28;19924;-80
2022/04/07 11:07:13;;;;;;;;;;;11.10;99.90;;;;;;5070088;28;19924;-80
2022/04/07 11:09:44;;;;;;;;;;;11.10;99.90;;;;;;5084342;28;20393;-79
2022/04/07 11:12:12;;;;;;;;;;;11.20;99.90;;;;;;5081584;28;20382;-77
2022/04/07 11:14:39;;;;;;;;;;;11.20;99.90;;;;;;5080111;28;19925;-77
2022/04/07 11:17:07;;;;;;;;;;;11.10;99.90;;;;;;5083065;28;19928;-77
2022/04/07 11:19:39;;;;;;;;;;;11.10;99.90;;;;;;5085123;28;19931;-78
2022/04/07 11:22:09;;;;;;;;;;;11.10;99.90;;;;;;5066205;28;19931;-78
2022/04/07 11:24:44;;;;;;;;;;;11.10;99.90;;;;;;5085961;28;19925;-78
2022/04/07 11:27:29;;;;;;;;;;;11.10;99.90;;;;;;5084946;28;20283;-77
2022/04/07 11:30:03;;;;;;;;;;;11.10;99.90;;;;;;5085956;28;20412;-77
2022/04/07 11:32:30;;;;;;;;;;;11.10;99.90;;;;;;5082885;28;19929;-80
2022/04/07 11:35:00;;;;;;;;;;;11.10;99.90;;;;;;5085527;28;19927;-80
2022/04/07 11:37:27;;;;;;;;;;;11.20;99.90;;;;;;5085695;28;19925;-79
2022/04/07 11:39:55;;;;;;;;;;;11.30;99.90;;;;;;5073083;28;19978;-79
2022/04/07 11:42:22;;;;;;;;;;;11.30;99.90;;;;;;5064325;28;19932;-80
2022/04/07 11:44:56;;;;;;;;;;;11.30;99.90;;;;;;5094581;28;19932;-79
2022/04/07 11:47:24;;;;;;;;;;;11.30;99.90;;;;;;5097089;28;19931;-79
2022/04/07 11:49:51;;;;;;;;;;;11.20;99.90;;;;;;5073799;28;19931;-79
2022/04/07 11:52:23;;;;;;;;;;;11.30;99.90;;;;;;5086514;28;19924;-80
2022/04/07 11:54:52;;;;;;;;;;;11.40;99.90;;;;;;5073647;28;19924;-80
2022/04/07 11:57:21;;;;;;;;;;;11.40;99.90;;;;;;5088681;28;19932;-79
2022/04/07 11:59:48;;;;;;;;;;;11.50;99.90;;;;;;5090291;28;19931;-80
2022/04/07 12:02:20;;;;;;;;;;;11.50;99.90;;;;;;5087866;28;20275;-80
2022/04/07 12:04:47;;;;;;;;;;;11.40;99.90;;;;;;5085425;28;19924;-80
2022/04/07 12:07:15;;;;;;;;;;;11.40;99.90;;;;;;5089522;28;19924;-79
2022/04/07 12:09:43;;;;;;;;;;;11.40;99.90;;;;;;5083648;28;19989;-80
2022/04/07 12:12:12;;;;;;;;;;;11.30;99.90;;;;;;5086023;28;20385;-77
2022/04/07 12:14:42;;;;;;;;;;;11.30;99.90;;;;;;5086513;28;19924;-77
2022/04/07 12:17:09;;;;;;;;;;;11.20;99.90;;;;;;5090367;28;19983;-81
2022/04/07 12:19:43;;;;;;;;;;;11.20;99.90;;;;;;5089755;28;19939;-78
2022/04/07 12:22:10;;;;;;;;;;;11.20;99.90;;;;;;5086626;28;20018;-78
2022/04/07 12:24:37;;;;;;;;;;;11.20;99.90;;;;;;5088582;28;19935;-78
2022/04/07 12:27:04;;;;;;;;;;;11.20;99.90;;;;;;5080935;28;19936;-78
2022/04/07 12:29:33;;;;;;;;;;;11.20;99.90;;;;;;5084506;28;20388;-79
2022/04/07 12:32:02;;;;;;;;;;;11.20;99.90;;;;;;5073799;28;19932;-77
2022/04/07 12:34:29;;;;;;;;;;;11.20;99.90;;;;;;5067342;28;19997;-78
2022/04/07 12:36:57;;;;;;;;;;;11.20;99.90;;;;;;5082104;28;20345;-78
2022/04/07 12:39:27;;;;;;;;;;;11.20;99.90;;;;;;5083752;28;20409;-78
2022/04/07 12:42:02;;;;;;;;;;;11.20;99.90;;;;;;5082532;28;19924;-77
2022/04/07 12:44:34;;;;;;;;;;;11.20;99.90;;;;;;5083163;28;20385;-78
2022/04/07 12:47:10;;;;;;;;;;;11.20;99.90;;;;;;5083046;28;19932;-77
2022/04/07 12:49:37;;;;;;;;;;;11.20;99.90;;;;;;5089034;28;19931;-77
2022/04/07 12:52:06;;;;;;;;;;;11.20;99.90;;;;;;5069184;28;19924;-78
2022/04/07 12:54:33;;;;;;;;;;;11.10;99.90;;;;;;5074429;28;19924;-77
2022/04/07 12:57:07;;;;;;;;;;;11.10;99.90;;;;;;5071787;28;20396;-78
2022/04/07 12:59:34;;;;;;;;;;;11.20;99.90;;;;;;5070490;28;19931;-78
2022/04/07 13:02:03;;;;;;;;;;;11.10;99.90;;;;;;5088184;28;19928;-78
2022/04/07 13:04:44;;;;;;;;;;;11.10;99.90;;;;;;5089239;28;20403;-80
2022/04/07 13:07:11;;;;;;;;;;;11.10;99.90;;;;;;5080156;28;19924;-79
2022/04/07 13:09:38;;;;;;;;;;;11.10;99.90;;;;;;5084799;28;19934;-78
2022/04/07 13:12:05;;;;;;;;;;;11.10;99.90;;;;;;5085506;28;19925;-77
2022/04/07 13:14:34;;;;;;;;;;;11.10;99.90;;;;;;5062786;28;19932;-78
2022/04/07 13:17:01;;;;;;;;;;;11.10;99.90;;;;;;5083444;28;20646;-77
2022/04/07 13:22:05;;;;;;;;;;;11.10;99.90;;;;;;5212613;22;20409;-79
2022/04/07 13:24:34;;;;;;;;;;;11.10;99.90;;;;;;5075795;28;19925;-80
2022/04/07 13:27:02;;;;;;;;;;;11.00;99.90;;;;;;5076179;28;20021;-80
2022/04/07 13:29:32;;;;;;;;;;;11.00;99.90;;;;;;5074267;28;19938;-80
2022/04/07 13:31:59;;;;;;;;;;;11.00;99.90;;;;;;5064520;28;20363;-79
2022/04/07 13:34:32;;;;;;;;;;;11.00;99.90;;;;;;5055100;28;19982;-80
2022/04/07 13:37:01;;;;;;;;;;;11.00;99.90;;;;;;5076285;22;19936;-78
2022/04/07 13:39:29;;;;;;;;;;;11.00;99.90;;;;;;5100668;28;20034;-77
2022/04/07 13:41:56;;;;;;;;;;;11.00;99.90;;;;;;5084064;28;19978;-77
2022/04/07 13:44:23;;;;;;;;;;;11.00;99.90;;;;;;5101318;28;19928;-78
2022/04/07 13:46:50;;;;;;;;;;;11.00;99.90;;;;;;5100501;28;19928;-78
2022/04/07 13:49:17;;;;;;;;;;;11.00;99.90;;;;;;5087222;28;20036;-79
2022/04/07 13:51:44;;;;;;;;;;;11.00;99.90;;;;;;5101344;28;20022;-77
2022/04/07 13:54:11;;;;;;;;;;;11.00;99.90;;;;;;5102517;28;20018;-77
2022/04/07 13:56:39;;;;;;;;;;;11.00;99.90;;;;;;5102098;28;19931;-77
2022/04/07 13:59:06;;;;;;;;;;;11.00;99.90;;;;;;5103993;28;19980;-77
2022/04/07 14:01:34;;;;;;;;;;;11.00;99.90;;;;;;5095896;28;20015;-77
2022/04/07 14:04:00;;;;;;;;;;;11.00;99.90;;;;;;5088307;28;19977;-77
2022/04/07 14:06:28;;;;;;;;;;;11.00;99.90;;;;;;5082382;28;19946;-77
2022/04/07 14:08:55;;;;;;;;;;;11.00;99.90;;;;;;5095129;28;20049;-74
2022/04/07 14:11:22;;;;;;;;;;;11.00;99.90;;;;;;5104181;28;19932;-79
2022/04/07 14:13:51;;;;;;;;;;;11.00;99.90;;;;;;5106771;28;20366;-78
2022/04/07 14:16:18;;;;;;;;;;;10.90;99.90;;;;;;5105696;28;19949;-79
2022/04/07 14:18:46;;;;;;;;;;;11.00;99.90;;;;;;5112189;28;20397;-79
2022/04/07 14:21:14;;;;;;;;;;;11.00;99.90;;;;;;5103598;28;19924;-79
2022/04/07 14:23:41;;;;;;;;;;;10.90;99.90;;;;;;5106860;28;19977;-79
2022/04/07 14:26:08;;;;;;;;;;;11.00;99.90;;;;;;5107218;28;19928;-79
2022/04/07 14:28:35;;;;;;;;;;;11.00;99.90;;;;;;5086207;28;19975;-77
2022/04/07 14:31:04;;;;;;;;;;;11.00;99.90;;;;;;5106431;28;19924;-80